Strona główna
Zdjęcia satelitarne 15-dni prognozyKlimatMeteorologia morska Cyklony Błyskawica LotniskoFAQ Gazetka O
Pogoda : Europa Afryka Ameryka Północna Ameryka Południowa Azja Australia-Oceania Inny
Języki Kontakt

Katowice, Polska

Pyrzowice

Szerokość geograficzna: 50-28-27N, Długość geograficzna: 019-04-48E, wysokość: 284 m


METAR: EPKT 232000Z 04007KT 9999 FEW004 SCT005 BKN007 03/02 Q1022
TAF: EPKT 231730Z 2318/2403 04010KT 6000 BKN009 TEMPO 2318/2403 2000 DZ BR BKN003

czas: 22:33 (20:33 UTC)

Aktualna obserwacja pogody

Raport powstał 33 minut temu, godzina 20:00 UTC
Wiatr 7 kt od północny wschód
Temperatura 3°C
Wilgotność 93%
Ciśnienie 1022 hPa
Widzialność 10 km lub więcej
Mało chmury na wysokości 400 ft
Rozproszone chmury na wysokości 500 ft
Przerywane chmury na wysokości 700 ft

Jednostka miary

Prognoza

Raport powstał 3 godziny i 3 minut temu, godzina 17:30 UTC
Prognoza ważna od 23 godzina 18 UTC do 24 godzina 03 UTC
Wiatr 10 kt od północny wschód
Widzialność: 6000 m
Przerywane chmury na wysokości 900 ft
Przejściowo
od 23 godzina 18 UTC do 24 godzina 03 UTC
Widzialność: 2000 m
Przerywane chmury na wysokości 300 ft
mżawka i zamglenie
Informacje na tej stronie internetowej podlegają klauzuli o wyłączeniu odpowiedzialności
Pogoda : Europa Afryka Ameryka Północna Ameryka Południowa Azja Australia-Oceania Inny
Zdjęcia satelitarne 15-dni prognozyKlimatMeteorologia morska Cyklony Błyskawica LotniskoFAQ Języki Kontakt Gazetka O